Watertown, WI

5:20 AM CST on February 28, 2017 (GMT -0600)
Washington County Golf Course, 6439 Clover Rd. | | Change Station

Elev 1055 ft 43.34 °N, 88.36 °W | Updated 13 seconds ago

Rain
Rain
40.9 °F
Feels Like 38 °F
N
5.0
Wind Variable Wind from SSE
Gusts 7.0 mph

Today
High -- | Low -- °F
--% Chance of Precip.
Yesterday
High -- | Low -- °F
Precip. -- in
Pressure 29.81 in
Visibility 5.0 miles
Clouds Mostly Cloudy 800 ft
Overcast 1200 ft
Windchill 38 °F
Dew Point 40.4 °F
Humidity 98%
Rainfall 0.07 in
Snow Depth Not available.
6:32 AM 5:43 PM
Waxing Crescent, 4% visible
METAR KRYV 281115Z AUTO 11006KT 5SM BR BKN008 OVC012 05/05 A2981 RMK AO2 LTG DSNT S T00530053
Pressure 29.81 in
Visibility 5.0 miles
Clouds Mostly Cloudy 800 ft
Overcast 1200 ft
Windchill 38 °F
Dew Point 40.4 °F
Humidity 98%
Rainfall 0.07 in
Snow Depth Not available.
6:32 AM 5:43 PM
Waxing Crescent, 4% visible
METAR KRYV 281115Z AUTO 11006KT 5SM BR BKN008 OVC012 05/05 A2981 RMK AO2 LTG DSNT S T00530053

Get Your Daily Forecast Email!

Thanks for signing up!

Be on the lookout for a verification email in your inbox.

You'll start receiving the daily forecast at 8 AM.

×

10-Day Weather Forecast

Almanac

Astronomy

Feb. 28, 2017 Rise Set
Actual Time
Civil Twilight
Nautical Twilight
Astronomical Twilight
Moon
Length of Visible Light
Length of Day
Tomorrow will be .
, % of the Moon is Illuminated

Today's Extremes

State Highs State Lows

Community

WunderPhotos

Upload Photos

1,962,540 photos uploaded!

WunderBlog® & News

Nearby

Air Quality

  Air Quality AQ Index Pollutant
Not available.

Snow Depth

Station Depth Elevation

Earthquake Activity

City Distance Mag. Time & Date
Minimum magnitude displayed is 2.5.

Coastal Water Temperatures

Place Temperature

Stations

Nearby Weather Stations

Station Location Temp. Windchill Dew Point Humidity Wind Precip. Elev Updated Type
                   

Watches & Warnings

There are currently no watches in effect.